createdAt,value
2018-09-28T00:00:07.127Z,13.83
2018-09-28T00:01:07.144Z,13.8
2018-09-28T00:02:07.306Z,13.78
2018-09-28T00:03:06.991Z,13.77
2018-09-28T00:04:07.103Z,13.74
2018-09-28T00:05:06.935Z,13.73
2018-09-28T00:06:06.917Z,13.73
2018-09-28T00:07:07.239Z,13.72
2018-09-28T00:08:07.142Z,13.71
2018-09-28T00:09:07.087Z,13.7
2018-09-28T00:10:07.159Z,13.7
2018-09-28T00:11:07.147Z,13.69
2018-09-28T00:12:07.200Z,13.68
2018-09-28T00:13:07.189Z,13.64
2018-09-28T00:14:07.076Z,13.63
2018-09-28T00:15:07.238Z,13.61
2018-09-28T00:16:07.093Z,13.6
2018-09-28T00:17:06.940Z,13.58
2018-09-28T00:18:07.151Z,13.58
2018-09-28T00:19:06.899Z,13.59
2018-09-28T00:20:07.278Z,13.57
2018-09-28T00:21:07.101Z,13.57
2018-09-28T00:22:07.248Z,13.58
2018-09-28T00:23:07.423Z,13.58
2018-09-28T00:24:07.121Z,13.6
2018-09-28T00:25:07.099Z,13.6
2018-09-28T00:26:08.445Z,13.6
2018-09-28T00:27:07.129Z,13.59
2018-09-28T00:28:06.965Z,13.6
2018-09-28T00:29:06.892Z,13.59
2018-09-28T00:30:06.903Z,13.6
2018-09-28T00:31:07.046Z,13.6
2018-09-28T00:32:07.031Z,13.6
2018-09-28T00:33:07.131Z,13.59
2018-09-28T00:34:07.451Z,13.6
2018-09-28T00:35:07.185Z,13.59
2018-09-28T00:36:07.044Z,13.62
2018-09-28T00:37:07.094Z,13.6
2018-09-28T00:38:07.323Z,13.59
2018-09-28T00:39:06.994Z,13.57
2018-09-28T00:40:07.436Z,13.59
2018-09-28T00:41:07.217Z,13.56
2018-09-28T00:42:06.958Z,13.58
2018-09-28T00:43:06.929Z,13.57
2018-09-28T00:44:07.140Z,13.57
2018-09-28T00:45:06.900Z,13.57
2018-09-28T00:46:06.988Z,13.57
2018-09-28T00:47:07.057Z,13.57
2018-09-28T00:48:07.154Z,13.55
2018-09-28T00:49:07.156Z,13.54
2018-09-28T00:50:06.934Z,13.56
2018-09-28T00:51:07.072Z,13.56
2018-09-28T00:52:07.129Z,13.57
2018-09-28T00:53:07.270Z,13.54
2018-09-28T00:54:07.064Z,13.56
2018-09-28T00:55:07.230Z,13.54
2018-09-28T00:56:06.973Z,13.54
2018-09-28T00:57:07.228Z,13.52
2018-09-28T00:58:07.141Z,13.52
2018-09-28T00:59:07.147Z,13.52
2018-09-28T01:00:07.074Z,13.5
2018-09-28T01:01:07.044Z,13.48
2018-09-28T01:02:06.995Z,13.46
2018-09-28T01:03:07.060Z,13.44
2018-09-28T01:04:06.861Z,13.42
2018-09-28T01:05:07.018Z,13.41
2018-09-28T01:06:07.054Z,13.4
2018-09-28T01:07:07.226Z,13.4
2018-09-28T01:08:06.837Z,13.4
2018-09-28T01:09:06.850Z,13.4
2018-09-28T01:10:06.833Z,13.39
2018-09-28T01:11:07.064Z,13.39
2018-09-28T01:12:07.076Z,13.4
2018-09-28T01:13:07.001Z,13.4
2018-09-28T01:14:06.981Z,13.37
2018-09-28T01:15:07.380Z,13.34
2018-09-28T01:16:06.815Z,13.31
2018-09-28T01:17:06.882Z,13.3
2018-09-28T01:18:07.032Z,13.28
2018-09-28T01:19:06.822Z,13.26
2018-09-28T01:20:07.004Z,13.22
2018-09-28T01:21:07.033Z,13.21
2018-09-28T01:22:06.852Z,13.2
2018-09-28T01:23:06.956Z,13.17
2018-09-28T01:24:07.191Z,13.17
2018-09-28T01:25:06.997Z,13.16
2018-09-28T01:26:06.820Z,13.14
2018-09-28T01:27:06.973Z,13.14
2018-09-28T01:28:06.863Z,13.14
2018-09-28T01:29:06.983Z,13.14
2018-09-28T01:30:06.795Z,13.15
2018-09-28T01:31:06.987Z,13.13
2018-09-28T01:32:06.973Z,13.11
2018-09-28T01:33:06.800Z,13.11
2018-09-28T01:34:06.988Z,13.12
2018-09-28T01:35:07.035Z,13.11
2018-09-28T01:36:07.253Z,13.11
2018-09-28T01:37:06.979Z,13.11
2018-09-28T01:38:07.142Z,13.1
2018-09-28T01:39:06.850Z,13.09
2018-09-28T01:40:06.814Z,13.1
2018-09-28T01:41:06.829Z,13.08
2018-09-28T01:42:07.385Z,13.05
2018-09-28T01:43:07.038Z,13.07
2018-09-28T01:44:07.027Z,13.03
2018-09-28T01:45:07.194Z,13.01
2018-09-28T01:46:06.820Z,12.98
2018-09-28T01:47:06.987Z,12.98
2018-09-28T01:48:07.202Z,12.97
2018-09-28T01:49:06.897Z,12.94
2018-09-28T01:50:06.944Z,12.96
2018-09-28T01:51:07.193Z,12.96
2018-09-28T01:52:07.160Z,12.96
2018-09-28T01:53:06.811Z,12.96
2018-09-28T01:54:06.889Z,12.91
2018-09-28T01:55:06.999Z,12.91
2018-09-28T01:56:06.793Z,12.89
2018-09-28T01:57:06.887Z,12.9
2018-09-28T01:58:06.948Z,12.9
2018-09-28T01:59:06.806Z,12.92
2018-09-28T02:00:06.965Z,12.92
2018-09-28T02:01:06.811Z,12.95
2018-09-28T02:02:07.202Z,12.95
2018-09-28T02:03:07.002Z,12.94
2018-09-28T02:04:07.066Z,12.95
2018-09-28T02:05:07.150Z,12.95
2018-09-28T02:06:07.312Z,12.96
2018-09-28T02:07:07.282Z,12.96
2018-09-28T02:08:06.958Z,12.96
2018-09-28T02:09:07.056Z,12.94
2018-09-28T02:10:06.796Z,12.91
2018-09-28T02:11:07.006Z,12.93
2018-09-28T02:12:06.748Z,12.9
2018-09-28T02:13:06.909Z,12.91
2018-09-28T02:14:08.743Z,12.9
2018-09-28T02:15:07.137Z,12.89
2018-09-28T02:16:07.247Z,12.89
2018-09-28T02:17:06.841Z,12.88
2018-09-28T02:18:06.820Z,12.88
2018-09-28T02:19:06.944Z,12.88
2018-09-28T02:20:07.006Z,12.89
2018-09-28T02:21:07.049Z,12.9
2018-09-28T02:22:07.168Z,12.88
2018-09-28T02:23:06.835Z,12.88
2018-09-28T02:24:06.830Z,12.89
2018-09-28T02:25:06.784Z,12.89
2018-09-28T02:26:06.806Z,12.88
2018-09-28T02:27:06.871Z,12.88
2018-09-28T02:28:06.824Z,12.88
2018-09-28T02:29:06.778Z,12.89
2018-09-28T02:30:06.777Z,12.86
2018-09-28T02:31:07.012Z,12.87
2018-09-28T02:32:07.143Z,12.84
2018-09-28T02:33:06.895Z,12.84
2018-09-28T02:34:06.866Z,12.84
2018-09-28T02:35:06.828Z,12.83
2018-09-28T02:36:07.022Z,12.84
2018-09-28T02:37:06.864Z,12.87
2018-09-28T02:38:06.761Z,12.84
2018-09-28T02:39:07.078Z,12.87
2018-09-28T02:40:07.187Z,12.84
2018-09-28T02:41:06.945Z,12.88
2018-09-28T02:42:06.919Z,12.89
2018-09-28T02:43:06.962Z,12.89
2018-09-28T02:44:06.908Z,12.88
2018-09-28T02:45:06.874Z,12.86
2018-09-28T02:46:06.732Z,12.85
2018-09-28T02:47:06.761Z,12.87
2018-09-28T02:48:06.751Z,12.85
2018-09-28T02:49:06.873Z,12.84
2018-09-28T02:50:06.734Z,12.84
2018-09-28T02:51:06.882Z,12.84
2018-09-28T02:52:06.890Z,12.82
2018-09-28T02:53:07.184Z,12.82
2018-09-28T02:54:06.870Z,12.8
2018-09-28T02:55:06.737Z,12.78
2018-09-28T02:56:06.883Z,12.77
2018-09-28T02:57:07.167Z,12.73
2018-09-28T02:58:06.895Z,12.72
2018-09-28T02:59:06.734Z,12.7
2018-09-28T03:00:06.939Z,12.69
2018-09-28T03:01:06.742Z,12.66
2018-09-28T03:02:06.732Z,12.64
2018-09-28T03:03:06.993Z,12.65
2018-09-28T03:04:07.007Z,12.64
2018-09-28T03:05:06.925Z,12.65
2018-09-28T03:06:07.509Z,12.64
2018-09-28T03:07:06.860Z,12.65
2018-09-28T03:08:06.804Z,12.61
2018-09-28T03:09:06.932Z,12.64
2018-09-28T03:10:06.731Z,12.6
2018-09-28T03:11:07.089Z,12.6
2018-09-28T03:12:06.685Z,12.59
2018-09-28T03:13:07.001Z,12.58
2018-09-28T03:14:07.006Z,12.57
2018-09-28T03:15:06.841Z,12.54
2018-09-28T03:16:06.821Z,12.54
2018-09-28T03:17:06.802Z,12.53
2018-09-28T03:18:06.709Z,12.53
2018-09-28T03:19:06.748Z,12.53
2018-09-28T03:20:06.953Z,12.53
2018-09-28T03:21:06.651Z,12.52
2018-09-28T03:22:06.780Z,12.53
2018-09-28T03:23:06.865Z,12.53
2018-09-28T03:24:06.784Z,12.51
2018-09-28T03:25:06.848Z,12.48
2018-09-28T03:26:06.694Z,12.49
2018-09-28T03:27:06.685Z,12.48
2018-09-28T03:28:06.871Z,12.47
2018-09-28T03:29:06.853Z,12.48
2018-09-28T03:30:06.921Z,12.46
2018-09-28T03:31:06.841Z,12.47
2018-09-28T03:32:06.953Z,12.46
2018-09-28T03:33:06.914Z,12.47
2018-09-28T03:34:06.796Z,12.46
2018-09-28T03:35:06.814Z,12.44
2018-09-28T03:36:06.860Z,12.43
2018-09-28T03:37:06.756Z,12.43
2018-09-28T03:38:06.843Z,12.41
2018-09-28T03:39:06.923Z,12.38
2018-09-28T03:40:06.905Z,12.41
2018-09-28T03:41:06.817Z,12.4
2018-09-28T03:42:06.833Z,12.39
2018-09-28T03:43:06.696Z,12.37
2018-09-28T03:44:07.121Z,12.37
2018-09-28T03:45:06.808Z,12.36
2018-09-28T03:46:06.632Z,12.36
2018-09-28T03:47:06.844Z,12.36
2018-09-28T03:48:06.821Z,12.35
2018-09-28T03:49:06.636Z,12.35
2018-09-28T03:50:06.817Z,12.31
2018-09-28T03:51:06.800Z,12.31
2018-09-28T03:52:06.862Z,12.3
2018-09-28T03:53:06.899Z,12.3
2018-09-28T03:54:06.935Z,12.3
2018-09-28T03:55:06.731Z,12.26
2018-09-28T03:56:06.836Z,12.27
2018-09-28T03:57:06.906Z,12.28
2018-09-28T03:58:06.952Z,12.27
2018-09-28T03:59:06.903Z,12.25
2018-09-28T04:00:07.000Z,12.28
2018-09-28T04:01:06.704Z,12.27
2018-09-28T04:02:06.606Z,12.25
2018-09-28T04:03:06.939Z,12.24
2018-09-28T04:04:07.172Z,12.25
2018-09-28T04:05:06.869Z,12.25
2018-09-28T04:06:06.985Z,12.22
2018-09-28T04:07:06.700Z,12.21
2018-09-28T04:08:06.794Z,12.21
2018-09-28T04:09:06.728Z,12.17
2018-09-28T04:10:06.581Z,12.16
2018-09-28T04:11:06.754Z,12.12
2018-09-28T04:12:06.695Z,12.1
2018-09-28T04:13:06.882Z,12.05
2018-09-28T04:14:06.886Z,12.05
2018-09-28T04:15:07.398Z,12.03
2018-09-28T04:16:06.714Z,12
2018-09-28T04:17:06.774Z,11.99
2018-09-28T04:18:06.758Z,11.98
2018-09-28T04:19:06.753Z,11.96
2018-09-28T04:20:06.799Z,11.92
2018-09-28T04:21:06.740Z,11.91
2018-09-28T04:22:08.011Z,11.9
2018-09-28T04:23:06.640Z,11.87
2018-09-28T04:24:06.761Z,11.86
2018-09-28T04:25:06.821Z,11.8
2018-09-28T04:26:06.601Z,11.76
2018-09-28T04:27:06.584Z,11.71
2018-09-28T04:28:06.603Z,11.72
2018-09-28T04:29:06.741Z,11.74
2018-09-28T04:30:06.572Z,11.73
2018-09-28T04:31:06.732Z,11.72
2018-09-28T04:32:06.919Z,11.74
2018-09-28T04:33:06.747Z,11.74
2018-09-28T04:34:07.004Z,11.72
2018-09-28T04:35:06.592Z,11.74
2018-09-28T04:36:06.836Z,11.7
2018-09-28T04:37:06.895Z,11.71
2018-09-28T04:38:06.830Z,11.7
2018-09-28T04:39:06.866Z,11.7
2018-09-28T04:40:06.880Z,11.69
2018-09-28T04:41:08.171Z,11.68
2018-09-28T04:42:06.776Z,11.68
2018-09-28T04:43:06.939Z,11.68
2018-09-28T04:44:06.830Z,11.69
2018-09-28T04:45:07.107Z,11.68
2018-09-28T04:46:06.779Z,11.67
2018-09-28T04:47:06.879Z,11.67
2018-09-28T04:48:06.755Z,11.64
2018-09-28T04:49:09.363Z,11.66
2018-09-28T04:50:06.941Z,11.65
2018-09-28T04:51:06.749Z,11.66
2018-09-28T04:52:06.808Z,11.65
2018-09-28T04:53:43.912Z,11.67
2018-09-28T04:54:06.694Z,11.64
2018-09-28T04:55:07.081Z,11.67
2018-09-28T04:56:06.851Z,11.67
2018-09-28T04:57:07.454Z,11.67
2018-09-28T04:58:06.626Z,11.67
2018-09-28T04:59:06.703Z,11.68
2018-09-28T05:00:06.760Z,11.66
2018-09-28T05:01:06.824Z,11.66
2018-09-28T05:02:06.756Z,11.63
2018-09-28T05:03:06.650Z,11.64
2018-09-28T05:04:06.664Z,11.63
2018-09-28T05:05:06.709Z,11.65
2018-09-28T05:06:06.752Z,11.62
2018-09-28T05:07:06.859Z,11.64
2018-09-28T05:08:06.792Z,11.62
2018-09-28T05:09:07.179Z,11.62
2018-09-28T05:10:06.840Z,11.61
2018-09-28T05:11:06.836Z,11.61
2018-09-28T05:12:06.858Z,11.63
2018-09-28T05:13:07.720Z,11.61
2018-09-28T05:14:06.908Z,11.61
2018-09-28T05:15:06.711Z,11.63
2018-09-28T05:16:06.725Z,11.63
2018-09-28T05:17:06.790Z,11.64
2018-09-28T05:18:06.591Z,11.61
2018-09-28T05:19:06.794Z,11.62
2018-09-28T05:20:06.774Z,11.64
2018-09-28T05:21:06.985Z,11.65
2018-09-28T05:22:07.949Z,11.66
2018-09-28T05:23:06.729Z,11.65
2018-09-28T05:24:06.776Z,11.63
2018-09-28T05:25:06.978Z,11.63
2018-09-28T05:26:06.789Z,11.65
2018-09-28T05:27:07.224Z,11.64
2018-09-28T05:28:06.805Z,11.66
2018-09-28T05:29:06.914Z,11.66
2018-09-28T05:30:06.816Z,11.66
2018-09-28T05:31:07.191Z,11.67
2018-09-28T05:32:08.061Z,11.67
2018-09-28T05:33:07.975Z,11.66
2018-09-28T05:34:06.770Z,11.65
2018-09-28T05:35:06.506Z,11.63
2018-09-28T05:36:06.883Z,11.6
2018-09-28T05:37:08.410Z,11.59
2018-09-28T05:38:06.869Z,11.56
2018-09-28T05:39:06.570Z,11.58
2018-09-28T05:40:06.803Z,11.56
2018-09-28T05:41:06.742Z,11.55
2018-09-28T05:42:06.893Z,11.56
2018-09-28T05:43:06.658Z,11.57
2018-09-28T05:44:06.660Z,11.57
2018-09-28T05:45:06.509Z,11.59
2018-09-28T05:46:06.673Z,11.6
2018-09-28T05:47:06.689Z,11.6
2018-09-28T05:48:06.493Z,11.61
2018-09-28T05:49:06.961Z,11.63
2018-09-28T05:50:06.821Z,11.6
2018-09-28T05:51:06.650Z,11.59
2018-09-28T05:52:06.628Z,11.6
2018-09-28T05:53:06.651Z,11.62
2018-09-28T05:54:06.495Z,11.6
2018-09-28T05:55:06.643Z,11.59
2018-09-28T05:56:06.446Z,11.59
2018-09-28T05:57:06.618Z,11.59
2018-09-28T05:58:06.597Z,11.59
2018-09-28T05:59:06.623Z,11.6
2018-09-28T06:00:07.450Z,11.59
2018-09-28T06:01:06.609Z,11.58
2018-09-28T06:02:06.684Z,11.56
2018-09-28T06:03:06.448Z,11.58
2018-09-28T06:04:06.646Z,11.56
2018-09-28T06:05:06.525Z,11.56
2018-09-28T06:06:06.613Z,11.55
2018-09-28T06:07:06.690Z,11.57
2018-09-28T06:08:06.685Z,11.6
2018-09-28T06:09:06.609Z,11.59
2018-09-28T06:10:06.628Z,11.58
2018-09-28T06:11:06.513Z,11.57
2018-09-28T06:12:06.698Z,11.59
2018-09-28T06:13:06.629Z,11.55
2018-09-28T06:14:06.884Z,11.59
2018-09-28T06:15:06.528Z,11.57
2018-09-28T06:16:06.821Z,11.59
2018-09-28T06:17:06.664Z,11.59
2018-09-28T06:18:06.440Z,11.6
2018-09-28T06:19:06.580Z,11.61
2018-09-28T06:20:06.720Z,11.61
2018-09-28T06:21:06.614Z,11.61
2018-09-28T06:22:06.732Z,11.62
2018-09-28T06:23:06.496Z,11.64
2018-09-28T06:24:07.175Z,11.65
2018-09-28T06:25:06.427Z,11.65
2018-09-28T06:26:06.434Z,11.65
2018-09-28T06:27:06.415Z,11.65
2018-09-28T06:28:06.552Z,11.67
2018-09-28T06:29:06.528Z,11.67
2018-09-28T06:30:07.150Z,11.69
2018-09-28T06:31:06.434Z,11.7
2018-09-28T06:32:06.761Z,11.72
2018-09-28T06:33:06.662Z,11.72
2018-09-28T06:34:06.504Z,11.72
2018-09-28T06:35:06.665Z,11.73
2018-09-28T06:36:07.102Z,11.73
2018-09-28T06:37:06.629Z,11.77
2018-09-28T06:38:06.860Z,11.76
2018-09-28T06:39:06.498Z,11.78
2018-09-28T06:40:06.839Z,11.79
2018-09-28T06:41:06.590Z,11.81
2018-09-28T06:42:07.647Z,11.82
2018-09-28T06:43:08.012Z,11.83
2018-09-28T06:44:06.886Z,11.85
2018-09-28T06:45:06.675Z,11.86
2018-09-28T06:46:06.619Z,11.9
2018-09-28T06:47:06.692Z,11.9
2018-09-28T06:48:06.833Z,11.91
2018-09-28T06:49:06.542Z,11.9
2018-09-28T06:50:06.581Z,11.91
2018-09-28T06:51:07.046Z,11.91
2018-09-28T06:52:06.681Z,11.92
2018-09-28T06:53:06.422Z,11.95
2018-09-28T06:54:06.774Z,11.94
2018-09-28T06:55:06.417Z,11.96
2018-09-28T06:56:06.773Z,11.97
2018-09-28T06:57:06.936Z,11.98
2018-09-28T06:58:07.231Z,12.01
2018-09-28T06:59:06.515Z,12.03
2018-09-28T07:00:07.131Z,12.04
2018-09-28T07:01:06.685Z,12.03
2018-09-28T07:02:06.580Z,12.03
2018-09-28T07:03:06.570Z,12.01
2018-09-28T07:04:07.139Z,12.02
2018-09-28T07:05:06.615Z,12.05
2018-09-28T07:06:06.890Z,12.09
2018-09-28T07:07:06.473Z,12.11
2018-09-28T07:08:06.529Z,12.14
2018-09-28T07:09:06.541Z,12.18
2018-09-28T07:10:06.589Z,12.21
2018-09-28T07:11:06.745Z,12.25
2018-09-28T07:12:06.707Z,12.27
2018-09-28T07:13:06.519Z,12.32
2018-09-28T07:14:06.400Z,12.37
2018-09-28T07:15:06.398Z,12.38
2018-09-28T07:16:06.861Z,12.39
2018-09-28T07:17:06.581Z,12.43
2018-09-28T07:18:06.931Z,12.49
2018-09-28T07:19:06.338Z,12.5
2018-09-28T07:20:06.969Z,12.54
2018-09-28T07:21:06.626Z,12.52
2018-09-28T07:22:06.329Z,12.51
2018-09-28T07:23:06.382Z,12.54
2018-09-28T07:24:06.933Z,12.56
2018-09-28T07:25:07.088Z,12.59
2018-09-28T07:26:06.610Z,12.62
2018-09-28T07:27:06.549Z,12.65
2018-09-28T07:28:06.490Z,12.69
2018-09-28T07:29:06.540Z,12.7
2018-09-28T07:30:07.135Z,12.72
2018-09-28T07:31:06.617Z,12.72
2018-09-28T07:32:07.343Z,12.77
2018-09-28T07:33:06.383Z,12.78
2018-09-28T07:34:07.001Z,12.79
2018-09-28T07:35:06.566Z,12.81
2018-09-28T07:36:09.303Z,12.8
2018-09-28T07:37:09.321Z,12.78
2018-09-28T07:38:06.657Z,12.81
2018-09-28T07:39:06.391Z,12.86
2018-09-28T07:40:06.343Z,12.89
2018-09-28T07:41:06.371Z,12.94
2018-09-28T07:42:07.135Z,12.97
2018-09-28T07:43:06.487Z,12.96
2018-09-28T07:44:06.338Z,13.03
2018-09-28T07:45:06.625Z,13.03
2018-09-28T07:46:06.375Z,13.05
2018-09-28T07:47:06.872Z,13.07
2018-09-28T07:48:07.177Z,13.12
2018-09-28T07:49:07.038Z,13.17
2018-09-28T07:50:06.579Z,13.14
2018-09-28T07:51:06.844Z,13.11
2018-09-28T07:52:06.338Z,13.14
2018-09-28T07:53:06.552Z,13.17
2018-09-28T07:54:06.665Z,13.23
2018-09-28T07:55:06.536Z,13.24
2018-09-28T07:56:06.516Z,13.21
2018-09-28T07:57:06.566Z,13.21
2018-09-28T07:58:06.771Z,13.26
2018-09-28T07:59:06.473Z,13.27
2018-09-28T08:00:06.569Z,13.29
2018-09-28T08:01:06.432Z,13.31
2018-09-28T08:02:06.376Z,13.34
2018-09-28T08:03:06.298Z,13.36
2018-09-28T08:04:06.425Z,13.41
2018-09-28T08:05:06.515Z,13.48
2018-09-28T08:06:06.439Z,13.54
2018-09-28T08:07:06.449Z,13.56
2018-09-28T08:08:06.697Z,13.58
2018-09-28T08:09:06.501Z,13.59
2018-09-28T08:10:06.535Z,13.6
2018-09-28T08:11:06.306Z,13.63
2018-09-28T08:12:06.496Z,13.68
2018-09-28T08:13:06.264Z,13.73
2018-09-28T08:14:06.487Z,13.75
2018-09-28T08:15:06.524Z,13.79
2018-09-28T08:16:06.311Z,13.81
2018-09-28T08:17:06.595Z,13.86
2018-09-28T08:18:06.499Z,13.9
2018-09-28T08:19:06.543Z,13.98
2018-09-28T08:20:06.582Z,14.04
2018-09-28T08:31:24.417Z,14.41
2018-09-28T08:32:24.483Z,14.41
2018-09-28T08:33:24.287Z,14.44
2018-09-28T08:34:24.288Z,14.5
2018-09-28T08:35:24.424Z,14.55
2018-09-28T08:36:25.129Z,14.56
2018-09-28T08:37:24.280Z,14.62
2018-09-28T08:38:24.223Z,14.64
2018-09-28T08:39:24.290Z,14.69
2018-09-28T08:40:24.267Z,14.71
2018-09-28T08:41:24.243Z,14.75
2018-09-28T08:42:24.250Z,14.82
2018-09-28T08:43:24.418Z,14.79
2018-09-28T08:44:24.218Z,14.82
2018-09-28T08:45:24.230Z,14.83
2018-09-28T08:46:24.325Z,14.85
2018-09-28T08:47:24.218Z,14.89
2018-09-28T08:48:24.295Z,14.92
2018-09-28T08:49:24.245Z,14.93
2018-09-28T08:50:24.205Z,14.92
2018-09-28T08:51:24.214Z,14.94
2018-09-28T08:52:25.407Z,14.96
2018-09-28T08:53:24.366Z,14.99
2018-09-28T08:54:24.367Z,15.02
2018-09-28T08:55:24.617Z,15.01
2018-09-28T08:56:24.263Z,15.1
2018-09-28T08:58:25.184Z,15.14
2018-09-28T08:59:24.296Z,15.24
2018-09-28T09:00:24.483Z,15.26
2018-09-28T09:01:24.251Z,15.28
2018-09-28T09:02:24.290Z,15.25
2018-09-28T09:03:24.430Z,15.29
2018-09-28T09:04:24.450Z,15.3
2018-09-28T09:05:24.362Z,15.32
2018-09-28T09:06:24.314Z,15.35
2018-09-28T09:07:24.484Z,15.42
2018-09-28T09:08:24.362Z,15.41
2018-09-28T09:09:24.340Z,15.43
2018-09-28T09:10:24.165Z,15.43
2018-09-28T09:11:24.211Z,15.44
2018-09-28T09:12:24.212Z,15.5
2018-09-28T09:13:24.512Z,15.51
2018-09-28T09:14:24.284Z,15.53
2018-09-28T09:15:24.599Z,15.62
2018-09-28T09:16:24.397Z,15.58
2018-09-28T09:17:24.260Z,15.62
2018-09-28T09:18:25.224Z,15.63
2018-09-28T09:19:24.134Z,15.67
2018-09-28T09:20:24.268Z,15.71
2018-09-28T09:21:24.246Z,15.77
2018-09-28T09:22:24.262Z,15.83
2018-09-28T09:23:24.317Z,15.86
2018-09-28T09:24:24.408Z,15.93
2018-09-28T09:25:24.205Z,15.97
2018-09-28T09:26:24.308Z,15.99
2018-09-28T09:27:24.596Z,15.99
2018-09-28T09:28:24.226Z,16.01
2018-09-28T09:29:24.436Z,16.01
2018-09-28T09:30:24.266Z,16.03
2018-09-28T09:31:24.103Z,16.05
2018-09-28T09:32:24.241Z,16.09
2018-09-28T09:33:24.390Z,16.14
2018-09-28T09:34:24.254Z,16.16
2018-09-28T09:35:24.422Z,16.24
2018-09-28T09:36:24.583Z,16.23
2018-09-28T09:37:24.161Z,16.25
2018-09-28T09:38:24.195Z,16.23
2018-09-28T09:39:24.205Z,16.29
2018-09-28T09:40:24.201Z,16.36
2018-09-28T09:41:24.112Z,16.38
2018-09-28T09:42:25.231Z,16.42
2018-09-28T09:43:24.465Z,16.45
2018-09-28T09:44:24.289Z,16.54
2018-09-28T09:45:24.155Z,16.61
2018-09-28T09:46:24.273Z,16.68
2018-09-28T09:47:24.158Z,16.8
2018-09-28T09:48:24.517Z,16.85
2018-09-28T09:49:24.236Z,16.92
2018-09-28T09:50:24.231Z,16.93
2018-09-28T09:51:24.191Z,16.91
2018-09-28T09:52:24.102Z,16.9
2018-09-28T09:53:24.189Z,16.91
2018-09-28T09:54:24.263Z,16.94
2018-09-28T09:55:24.115Z,16.97
2018-09-28T09:56:24.089Z,17
2018-09-28T09:57:24.204Z,17.03
2018-09-28T09:58:24.141Z,17.07
2018-09-28T09:59:24.215Z,17.13
2018-09-28T10:00:24.347Z,17.22
2018-09-28T10:01:24.133Z,17.33
2018-09-28T10:02:24.158Z,17.34
2018-09-28T10:03:24.400Z,17.39
2018-09-28T10:04:24.152Z,17.41
2018-09-28T10:05:24.132Z,17.39
2018-09-28T10:06:24.298Z,17.43
2018-09-28T10:07:24.172Z,17.49
2018-09-28T10:08:24.083Z,17.5
2018-09-28T10:09:25.547Z,17.54
2018-09-28T10:10:24.109Z,17.55
2018-09-28T10:11:24.044Z,17.62
2018-09-28T10:12:26.442Z,17.64
2018-09-28T10:13:24.052Z,17.67
2018-09-28T10:14:24.399Z,17.69
2018-09-28T10:15:24.056Z,17.76
2018-09-28T10:16:24.161Z,17.73
2018-09-28T10:17:24.150Z,17.77
2018-09-28T10:18:24.029Z,17.8
2018-09-28T10:19:25.287Z,17.79
2018-09-28T10:20:24.121Z,17.82
2018-09-28T10:21:24.169Z,17.79
2018-09-28T10:22:24.034Z,17.82
2018-09-28T10:23:24.041Z,17.87
2018-09-28T10:24:24.526Z,17.99
2018-09-28T10:25:24.130Z,18.04
2018-09-28T10:26:24.196Z,17.99
2018-09-28T10:27:25.399Z,18
2018-09-28T10:28:24.781Z,18.04
2018-09-28T10:29:24.244Z,18.02
2018-09-28T10:30:24.251Z,18.05
2018-09-28T10:31:24.094Z,18.1
2018-09-28T10:32:24.125Z,18.15
2018-09-28T10:33:24.197Z,18.21
2018-09-28T10:34:25.102Z,18.26
2018-09-28T10:35:24.198Z,18.34
2018-09-28T10:36:24.336Z,18.38
2018-09-28T10:37:24.203Z,18.39
2018-09-28T10:38:24.115Z,18.44
2018-09-28T10:39:25.028Z,18.43
2018-09-28T10:40:25.618Z,18.37
2018-09-28T10:41:24.038Z,18.37
2018-09-28T10:42:24.235Z,18.38
2018-09-28T10:43:24.190Z,18.4
2018-09-28T10:44:24.046Z,18.44
2018-09-28T10:45:25.396Z,18.46
2018-09-28T10:46:24.568Z,18.52
2018-09-28T10:47:24.178Z,18.54
2018-09-28T10:48:24.131Z,18.67
2018-09-28T10:49:24.609Z,18.67
2018-09-28T10:50:24.291Z,18.69
2018-09-28T10:51:25.258Z,18.69
2018-09-28T10:52:27.171Z,18.68
2018-09-28T10:53:24.117Z,18.78
2018-09-28T10:55:03.849Z,18.94
2018-09-28T10:56:03.722Z,18.94
2018-09-28T10:57:48.658Z,19
2018-09-28T10:58:49.856Z,18.96
2018-09-28T10:59:48.720Z,18.96
2018-09-28T11:00:48.535Z,19.01
2018-09-28T11:01:49.158Z,19.01
2018-09-28T11:02:48.704Z,19.05
2018-09-28T11:03:51.176Z,19.04
2018-09-28T11:05:48.636Z,19.12
2018-09-28T11:06:49.847Z,19.14
2018-09-28T11:07:48.620Z,19.21
2018-09-28T11:08:49.016Z,19.19
2018-09-28T11:09:51.918Z,19.21
2018-09-28T11:10:49.415Z,19.24
2018-09-28T11:11:48.494Z,19.35
2018-09-28T11:12:48.528Z,19.34
2018-09-28T11:13:48.523Z,19.4
2018-09-28T11:14:48.528Z,19.46
2018-09-28T11:15:51.986Z,19.52
2018-09-28T11:16:48.355Z,19.53
2018-09-28T11:17:48.566Z,19.51
2018-09-28T11:18:49.178Z,19.5
2018-09-28T11:19:48.449Z,19.47
2018-09-28T11:20:48.639Z,19.4
2018-09-28T11:21:49.921Z,19.39
2018-09-28T11:22:48.653Z,19.39
2018-09-28T11:23:48.814Z,19.53
2018-09-28T11:24:48.750Z,19.58
2018-09-28T11:25:48.860Z,19.61
2018-09-28T11:26:48.615Z,19.6
2018-09-28T11:27:49.378Z,19.59
2018-09-28T11:28:48.650Z,19.68
2018-09-28T11:29:48.635Z,19.76
2018-09-28T11:30:48.560Z,19.75
2018-09-28T11:31:48.564Z,19.73
2018-09-28T11:32:48.682Z,19.84
2018-09-28T11:33:49.844Z,19.95
2018-09-28T11:34:48.598Z,19.95
2018-09-28T11:35:48.673Z,19.85
2018-09-28T11:36:48.617Z,19.93
2018-09-28T11:37:49.039Z,19.9
2018-09-28T11:38:48.455Z,19.93
2018-09-28T11:39:49.459Z,19.91
2018-09-28T11:40:48.547Z,19.9
2018-09-28T11:41:48.673Z,19.92
2018-09-28T11:42:48.845Z,20.02
2018-09-28T11:43:48.768Z,20.06
2018-09-28T11:44:48.650Z,20.01
2018-09-28T11:45:49.874Z,19.98
2018-09-28T11:46:48.549Z,19.97
2018-09-28T11:47:48.495Z,19.95
2018-09-28T11:48:48.642Z,19.96
2018-09-28T11:49:48.504Z,19.88
2018-09-28T11:50:48.507Z,19.85
2018-09-28T11:51:49.523Z,19.86
2018-09-28T11:52:48.571Z,19.97
2018-09-28T11:53:48.622Z,20.01
2018-09-28T11:54:48.399Z,19.98
2018-09-28T11:55:48.806Z,19.98
2018-09-28T11:56:48.485Z,20
2018-09-28T11:57:48.670Z,19.96
2018-09-28T11:58:48.658Z,19.98
2018-09-28T11:59:48.424Z,19.92
2018-09-28T12:00:48.750Z,19.93
2018-09-28T12:01:48.424Z,19.92
2018-09-28T12:02:48.399Z,19.98
2018-09-28T12:03:49.692Z,20
2018-09-28T12:04:48.383Z,20.02
2018-09-28T12:05:48.376Z,20.15
2018-09-28T12:06:50.021Z,20.19
2018-09-28T12:07:48.524Z,20.33
2018-09-28T12:08:48.329Z,20.2
2018-09-28T12:09:49.650Z,20.18
2018-09-28T12:10:48.824Z,20.26
2018-09-28T12:11:48.341Z,20.19
2018-09-28T12:12:49.823Z,20.22
2018-09-28T12:13:48.835Z,20.27
2018-09-28T12:14:48.706Z,20.38
2018-09-28T12:15:49.482Z,20.41
2018-09-28T12:16:48.442Z,20.35
2018-09-28T12:17:48.366Z,20.32
2018-09-28T12:18:49.369Z,20.34
2018-09-28T12:19:48.499Z,20.38
2018-09-28T12:20:48.392Z,20.3
2018-09-28T12:21:49.293Z,20.27
2018-09-28T12:22:48.503Z,20.18
2018-09-28T12:23:48.426Z,20.18
2018-09-28T12:24:49.414Z,20.22
2018-09-28T12:25:48.450Z,20.42
2018-09-28T12:26:48.394Z,20.53
2018-09-28T12:27:49.546Z,20.5
2018-09-28T12:28:48.400Z,20.49
2018-09-28T12:29:48.357Z,20.52
2018-09-28T12:30:49.260Z,20.65
2018-09-28T12:31:48.444Z,20.61
2018-09-28T12:32:48.397Z,20.56
2018-09-28T12:33:49.948Z,20.53
2018-09-28T12:34:48.368Z,20.61
2018-09-28T12:35:48.305Z,20.51
2018-09-28T12:36:49.225Z,20.55
2018-09-28T12:37:48.646Z,20.63
2018-09-28T12:38:48.310Z,20.65
2018-09-28T12:39:50.248Z,20.61
2018-09-28T12:40:48.313Z,20.63
2018-09-28T12:41:48.366Z,20.62
2018-09-28T12:42:49.608Z,20.56
2018-09-28T12:43:48.530Z,20.55
2018-09-28T12:44:49.273Z,20.55
2018-09-28T12:45:48.465Z,20.57
2018-09-28T12:46:48.327Z,20.55
2018-09-28T12:47:48.361Z,20.55
2018-09-28T12:48:49.521Z,20.6
2018-09-28T12:49:48.476Z,20.59
2018-09-28T12:50:49.644Z,20.57
2018-09-28T12:51:48.553Z,20.57
2018-09-28T12:52:48.352Z,20.55
2018-09-28T12:53:49.445Z,20.66
2018-09-28T12:54:49.125Z,20.67
2018-09-28T12:55:48.416Z,20.69
2018-09-28T12:56:49.030Z,20.7
2018-09-28T12:57:48.436Z,20.68
2018-09-28T12:58:48.342Z,20.71
2018-09-28T12:59:48.320Z,20.7
2018-09-28T13:00:50.439Z,20.74
2018-09-28T13:01:48.465Z,20.7
2018-09-28T13:02:49.376Z,20.67
2018-09-28T13:03:48.745Z,20.62
2018-09-28T13:04:48.431Z,20.7
2018-09-28T13:05:48.268Z,20.75
2018-09-28T13:06:49.969Z,20.75
2018-09-28T13:07:48.312Z,20.8
2018-09-28T13:08:49.394Z,20.83
2018-09-28T13:09:48.619Z,20.82